Time;durP1;ratioP1;P1;durP2;ratioP2;P2;SDS_P1;SDS_P2;PMS_P1;PMS_P2;Temp;Humidity;BMP_temperature;BMP_pressure;BME280_temperature;BME280_humidity;BME280_pressure;Samples;Min_cycle;Max_cycle;Signal;HPM_P1;HPM_P2
2022/01/11 00:01:40;;;;;;;7.45;4.88;;;10.20;92.70;;;;;;5054789;28;20040;-83
2022/01/11 00:04:06;;;;;;;6.68;4.57;;;10.20;92.80;;;;;;5051865;28;20078;-83
2022/01/11 00:06:41;;;;;;;7.10;4.43;;;10.20;92.70;;;;;;5054921;28;20033;-83
2022/01/11 00:09:53;;;;;;;8.63;4.45;;;10.10;92.70;;;;;;5040366;28;20490;-83
2022/01/11 00:11:53;;;;;;;9.52;5.28;;;10.00;92.70;;;;;;5034361;28;20049;-88
2022/01/11 00:14:18;;;;;;;6.28;4.35;;;10.00;92.90;;;;;;5054063;28;20021;-83
2022/01/11 00:16:45;;;;;;;7.40;3.90;;;10.00;92.80;;;;;;5054818;28;20557;-83
2022/01/11 00:19:13;;;;;;;6.22;3.90;;;10.00;93.00;;;;;;5054661;28;20032;-83
2022/01/11 00:21:45;;;;;;;7.55;4.43;;;9.90;92.80;;;;;;5054696;28;20395;-81
2022/01/11 00:24:29;;;;;;;6.25;4.05;;;10.00;93.00;;;;;;5054879;28;20024;-81
2022/01/11 00:26:57;;;;;;;8.57;4.35;;;10.00;93.10;;;;;;5054950;28;20464;-81
2022/01/11 00:29:23;;;;;;;6.57;3.90;;;10.00;93.00;;;;;;5046300;28;20053;-82
2022/01/11 00:31:49;;;;;;;7.15;3.90;;;10.00;93.00;;;;;;5053681;28;20483;-82
2022/01/11 00:34:17;;;;;;;6.45;4.20;;;10.00;93.00;;;;;;5054545;28;20028;-82
2022/01/11 00:36:43;;;;;;;6.53;4.25;;;10.00;92.70;;;;;;5054390;28;20086;-82
2022/01/11 00:39:10;;;;;;;5.97;4.10;;;10.00;92.80;;;;;;5053210;28;20453;-82
2022/01/11 00:41:40;;;;;;;6.53;3.72;;;10.00;92.90;;;;;;5053640;28;20078;-86
2022/01/11 00:44:07;;;;;;;7.07;4.00;;;10.10;92.90;;;;;;5054959;28;20033;-84
2022/01/11 00:46:34;;;;;;;8.35;4.35;;;10.10;92.70;;;;;;5054120;28;20017;-81
2022/01/11 00:48:59;;;;;;;6.95;4.00;;;10.10;92.60;;;;;;5054472;28;20029;-80
2022/01/11 00:51:25;;;;;;;6.95;4.10;;;10.00;92.70;;;;;;5053819;28;20179;-81
2022/01/11 00:53:51;;;;;;;6.13;4.28;;;10.00;92.90;;;;;;5054273;28;20401;-82
2022/01/11 00:56:17;;;;;;;5.65;4.07;;;10.10;92.90;;;;;;5052980;28;20503;-82
2022/01/11 00:58:43;;;;;;;7.38;4.53;;;10.10;92.60;;;;;;5049825;28;20032;-82
2022/01/11 01:01:09;;;;;;;6.40;3.78;;;10.10;92.60;;;;;;5051745;28;20025;-81
2022/01/11 01:03:35;;;;;;;7.13;3.70;;;10.10;92.70;;;;;;5052191;28;20478;-82
2022/01/11 01:06:01;;;;;;;6.55;3.83;;;10.10;92.70;;;;;;5047120;28;20041;-82
2022/01/11 01:08:27;;;;;;;6.50;4.13;;;10.10;92.80;;;;;;5053158;28;20024;-82
2022/01/11 01:10:53;;;;;;;8.85;4.28;;;10.10;92.60;;;;;;5053648;28;20509;-84
2022/01/11 01:13:22;;;;;;;6.72;4.18;;;10.10;92.50;;;;;;5046829;28;20486;-83
2022/01/11 01:15:49;;;;;;;8.02;4.47;;;10.10;92.60;;;;;;5027054;28;20112;-83
2022/01/11 01:18:20;;;;;;;7.18;4.45;;;10.00;92.60;;;;;;5052648;28;20041;-82
2022/01/11 01:20:46;;;;;;;7.60;4.30;;;9.90;92.60;;;;;;5053709;28;20033;-82
2022/01/11 01:23:12;;;;;;;10.80;4.90;;;9.90;92.70;;;;;;5052838;28;20021;-82
2022/01/11 01:25:39;;;;;;;7.90;4.80;;;9.90;92.70;;;;;;5053869;28;20060;-82
2022/01/11 01:28:06;;;;;;;6.03;4.53;;;9.90;92.70;;;;;;5051666;28;20115;-82
2022/01/11 01:30:32;;;;;;;8.77;4.82;;;9.90;92.90;;;;;;5045140;28;20510;-82
2022/01/11 01:32:57;;;;;;;9.05;4.80;;;10.00;92.90;;;;;;5037580;28;20081;-81
2022/01/11 01:35:27;;;;;;;8.55;5.20;;;10.00;92.80;;;;;;5052570;28;20479;-82
2022/01/11 01:37:53;;;;;;;9.73;5.22;;;10.00;92.60;;;;;;5053377;28;20036;-82
2022/01/11 01:40:19;;;;;;;8.02;5.20;;;10.10;92.90;;;;;;5048040;28;20040;-83
2022/01/11 01:42:47;;;;;;;10.75;6.65;;;10.10;92.70;;;;;;5052884;28;20025;-82
2022/01/11 01:45:13;;;;;;;8.02;6.20;;;10.10;92.60;;;;;;5053241;28;20029;-82
2022/01/11 01:47:39;;;;;;;7.97;5.22;;;10.00;92.50;;;;;;5052582;28;20112;-81
2022/01/11 01:50:06;;;;;;;11.00;6.20;;;10.00;92.50;;;;;;5052990;28;20060;-82
2022/01/11 01:52:33;;;;;;;8.77;5.78;;;10.00;92.60;;;;;;5058090;28;20036;-80
2022/01/11 01:54:58;;;;;;;9.20;5.40;;;10.10;93.00;;;;;;5062149;28;20040;-82
2022/01/11 01:57:25;;;;;;;12.18;6.70;;;10.20;92.80;;;;;;5052806;28;20021;-82
2022/01/11 01:59:51;;;;;;;10.43;6.75;;;10.10;92.50;;;;;;5051761;28;20090;-82
2022/01/11 02:02:16;;;;;;;9.63;6.03;;;10.10;92.60;;;;;;5050862;28;20025;-82
2022/01/11 02:04:42;;;;;;;12.98;7.45;;;10.00;92.50;;;;;;5052863;28;20482;-82
2022/01/11 02:07:08;;;;;;;9.35;6.43;;;10.10;92.70;;;;;;5052966;28;20501;-83
2022/01/11 02:09:34;;;;;;;13.27;7.25;;;10.00;92.50;;;;;;5052637;28;20127;-83
2022/01/11 02:12:00;;;;;;;11.13;7.53;;;10.00;92.60;;;;;;5051795;28;20158;-83
2022/01/11 02:14:26;;;;;;;12.25;7.40;;;10.00;92.60;;;;;;5051782;28;20178;-83
2022/01/11 02:16:53;;;;;;;8.30;6.03;;;10.10;92.70;;;;;;5053735;28;20616;-82
2022/01/11 02:19:19;;;;;;;11.63;6.57;;;10.10;92.70;;;;;;5051582;28;20108;-82
2022/01/11 02:21:45;;;;;;;10.60;6.60;;;10.10;92.70;;;;;;5051395;28;20065;-81
2022/01/11 02:24:10;;;;;;;9.32;6.43;;;10.20;92.80;;;;;;5052958;28;20163;-82
2022/01/11 02:26:36;;;;;;;8.98;6.00;;;10.20;92.80;;;;;;5051453;28;20099;-82
2022/01/11 02:29:02;;;;;;;11.68;7.18;;;10.20;92.60;;;;;;5053112;28;20482;-82
2022/01/11 02:31:28;;;;;;;12.43;8.05;;;10.30;92.70;;;;;;5052119;28;20072;-82
2022/01/11 02:33:58;;;;;;;8.32;6.30;;;10.30;92.50;;;;;;5052657;28;20106;-82
2022/01/11 02:36:30;;;;;;;11.23;7.35;;;10.30;92.50;;;;;;5052800;28;20552;-81
2022/01/11 02:38:56;;;;;;;10.27;7.30;;;10.30;92.60;;;;;;5052465;28;20083;-81
2022/01/11 02:41:27;;;;;;;9.70;7.40;;;10.30;92.30;;;;;;5051813;28;20529;-81
2022/01/11 02:43:53;;;;;;;11.18;7.00;;;10.30;92.40;;;;;;5052534;28;20078;-81
2022/01/11 02:46:20;;;;;;;10.73;7.47;;;10.30;92.40;;;;;;5051062;28;20021;-81
2022/01/11 02:48:47;;;;;;;10.52;6.65;;;10.30;92.10;;;;;;5047765;28;20075;-81
2022/01/11 02:51:13;;;;;;;9.20;6.80;;;10.30;92.40;;;;;;5052434;28;20033;-81
2022/01/11 02:53:42;;;;;;;12.45;7.25;;;10.30;92.40;;;;;;5055645;28;20078;-82
2022/01/11 02:56:08;;;;;;;10.45;7.60;;;10.30;92.40;;;;;;5055699;28;20076;-81
2022/01/11 02:58:34;;;;;;;8.73;6.88;;;10.30;92.30;;;;;;5056502;28;20028;-81
2022/01/11 03:00:59;;;;;;;11.57;8.27;;;10.30;92.20;;;;;;5056179;28;20052;-81
2022/01/11 03:03:25;;;;;;;11.05;6.90;;;10.20;92.20;;;;;;5056430;28;20024;-81
2022/01/11 03:05:57;;;;;;;11.15;7.45;;;10.20;92.30;;;;;;5056206;28;20037;-81
2022/01/11 03:08:24;;;;;;;11.90;7.80;;;10.20;92.40;;;;;;5054996;28;20057;-81
2022/01/11 03:10:51;;;;;;;13.68;7.97;;;10.20;92.20;;;;;;5055980;28;20273;-81
2022/01/11 03:13:18;;;;;;;13.13;7.32;;;10.10;92.20;;;;;;5049917;28;20029;-81
2022/01/11 03:15:44;;;;;;;10.75;6.60;;;10.20;92.40;;;;;;5049415;28;20029;-81
2022/01/11 03:18:11;;;;;;;12.85;7.90;;;10.20;92.50;;;;;;5056000;28;20163;-81
2022/01/11 03:20:38;;;;;;;9.02;6.35;;;10.20;92.40;;;;;;5054967;28;20021;-81
2022/01/11 03:23:04;;;;;;;12.45;7.20;;;10.30;93.10;;;;;;5056133;28;20504;-80
2022/01/11 03:25:31;;;;;;;11.77;7.30;;;10.30;92.30;;;;;;5055875;28;20040;-82
2022/01/11 03:27:56;;;;;;;10.93;7.30;;;10.30;92.30;;;;;;5055811;28;20110;-82
2022/01/11 03:30:22;;;;;;;10.85;7.03;;;10.30;92.20;;;;;;5055698;28;20061;-82
2022/01/11 03:32:48;;;;;;;11.95;7.50;;;10.20;92.30;;;;;;5055560;28;20445;-82
2022/01/11 03:35:14;;;;;;;9.88;7.43;;;10.20;92.30;;;;;;5054916;28;20111;-83
2022/01/11 03:37:42;;;;;;;9.40;6.88;;;10.30;92.30;;;;;;5055238;28;20059;-83
2022/01/11 03:40:11;;;;;;;9.38;7.10;;;10.20;92.30;;;;;;5055502;28;20032;-84
2022/01/11 03:42:37;;;;;;;10.95;6.53;;;10.20;92.20;;;;;;5055465;28;20024;-84
2022/01/11 03:45:05;;;;;;;10.85;7.05;;;10.20;92.30;;;;;;5055583;28;20040;-84
2022/01/11 03:47:30;;;;;;;8.93;6.93;;;10.20;92.30;;;;;;5048589;28;20518;-84
2022/01/11 03:49:56;;;;;;;8.73;6.75;;;10.20;92.20;;;;;;5053874;28;20029;-83
2022/01/11 03:52:22;;;;;;;13.60;7.47;;;10.20;92.30;;;;;;5054856;28;20021;-83
2022/01/11 03:57:23;;;;;;;9.75;7.43;;;10.20;92.30;;;;;;5055386;28;20490;-83
2022/01/11 03:59:49;;;;;;;12.13;7.90;;;10.20;92.30;;;;;;5055215;28;20466;-83
2022/01/11 04:02:14;;;;;;;12.80;7.18;;;10.10;92.10;;;;;;5053623;28;20023;-82
2022/01/11 04:04:40;;;;;;;10.77;7.30;;;10.10;92.40;;;;;;5055350;28;20403;-82
2022/01/11 04:07:06;;;;;;;11.75;7.10;;;10.10;92.30;;;;;;5055012;28;20383;-82
2022/01/11 04:09:32;;;;;;;11.43;7.75;;;10.10;92.30;;;;;;5055267;28;20402;-82
2022/01/11 04:11:58;;;;;;;9.80;7.35;;;10.10;92.30;;;;;;5055090;28;20497;-82
2022/01/11 04:14:27;;;;;;;10.40;6.50;;;10.10;92.50;;;;;;5041977;28;20026;-83
2022/01/11 04:16:53;;;;;;;10.32;6.95;;;10.10;92.40;;;;;;5055575;28;20042;-83
2022/01/11 04:19:21;;;;;;;10.73;7.38;;;10.10;92.30;;;;;;5054636;28;20483;-82
2022/01/11 04:21:48;;;;;;;9.75;6.82;;;10.00;92.20;;;;;;5054419;28;20545;-82
2022/01/11 04:24:14;;;;;;;9.35;6.13;;;10.00;92.30;;;;;;5054796;28;20474;-82
2022/01/11 04:26:40;;;;;;;10.45;6.88;;;10.00;92.40;;;;;;5054104;28;20028;-82
2022/01/11 04:29:06;;;;;;;9.10;5.68;;;10.00;92.20;;;;;;5054520;28;20039;-82
2022/01/11 04:31:32;;;;;;;8.88;6.57;;;10.00;92.50;;;;;;5054515;28;20041;-82
2022/01/11 04:33:57;;;;;;;8.85;5.72;;;10.10;92.50;;;;;;5054613;28;20037;-82
2022/01/11 04:36:23;;;;;;;9.60;5.65;;;10.00;92.40;;;;;;5054278;28;20487;-81
2022/01/11 04:38:49;;;;;;;8.82;5.65;;;10.10;92.50;;;;;;5053493;28;20403;-82
2022/01/11 04:41:15;;;;;;;8.70;6.20;;;10.00;92.10;;;;;;5052379;28;20120;-82
2022/01/11 04:43:41;;;;;;;8.60;5.18;;;10.00;92.10;;;;;;5056758;28;20028;-81
2022/01/11 04:46:07;;;;;;;11.10;6.13;;;10.00;92.50;;;;;;5054168;28;20029;-82
2022/01/11 04:48:32;;;;;;;8.80;6.05;;;10.00;92.40;;;;;;5049194;28;20453;-83
2022/01/11 04:51:03;;;;;;;10.88;6.45;;;10.00;92.30;;;;;;5053351;28;20535;-83
2022/01/11 04:53:29;;;;;;;8.48;5.95;;;10.00;92.20;;;;;;5049767;28;20053;-83
2022/01/11 04:55:56;;;;;;;6.97;5.45;;;9.90;92.30;;;;;;5054115;28;20484;-83
2022/01/11 04:58:22;;;;;;;8.70;5.90;;;10.00;92.60;;;;;;5054221;28;20111;-81
2022/01/11 05:00:48;;;;;;;10.10;5.78;;;10.10;92.60;;;;;;5053884;28;20029;-82
2022/01/11 05:03:14;;;;;;;11.23;5.80;;;10.10;92.40;;;;;;5054101;28;20053;-82
2022/01/11 05:05:40;;;;;;;10.10;5.90;;;10.20;92.90;;;;;;5053080;28;20498;-81
2022/01/11 05:08:05;;;;;;;9.25;6.03;;;10.20;92.40;;;;;;5053697;28;20025;-82
2022/01/11 05:10:32;;;;;;;11.10;5.90;;;10.20;92.40;;;;;;5053841;28;20106;-82
2022/01/11 05:12:58;;;;;;;8.75;5.78;;;10.20;92.30;;;;;;5050514;28;20104;-82
2022/01/11 05:15:25;;;;;;;9.55;5.38;;;10.20;92.40;;;;;;5047545;28;20024;-82
2022/01/11 05:17:52;;;;;;;10.65;6.57;;;10.20;92.20;;;;;;5051751;28;20031;-83
2022/01/11 05:20:19;;;;;;;10.73;5.97;;;10.10;92.20;;;;;;5052342;28;20033;-82
2022/01/11 05:22:45;;;;;;;10.02;5.20;;;10.20;92.30;;;;;;5053559;28;20062;-81
2022/01/11 05:25:14;;;;;;;9.80;5.40;;;10.20;92.30;;;;;;5053616;28;20502;-81
2022/01/11 05:27:41;;;;;;;8.68;5.30;;;10.20;92.20;;;;;;5053664;28;20025;-80
2022/01/11 05:30:08;;;;;;;8.40;5.60;;;10.10;92.20;;;;;;5052178;28;20726;-81
2022/01/11 05:32:35;;;;;;;11.55;6.57;;;10.10;92.20;;;;;;5052806;28;20479;-81
2022/01/11 05:35:03;;;;;;;11.13;6.07;;;10.00;92.10;;;;;;5052980;28;20516;-81
2022/01/11 05:37:29;;;;;;;10.73;5.70;;;10.00;92.20;;;;;;5053527;28;20118;-81
2022/01/11 05:39:54;;;;;;;8.43;5.25;;;10.10;92.70;;;;;;5053233;28;20070;-80
2022/01/11 05:42:20;;;;;;;9.73;6.10;;;10.10;92.40;;;;;;5053501;28;20017;-80
2022/01/11 05:44:46;;;;;;;8.23;5.70;;;10.10;92.50;;;;;;5053355;28;20029;-81
2022/01/11 05:47:12;;;;;;;9.70;5.90;;;10.20;92.50;;;;;;5052308;28;20035;-80
2022/01/11 05:49:37;;;;;;;10.52;5.75;;;10.10;92.30;;;;;;5050121;28;20033;-81
2022/01/11 05:52:03;;;;;;;10.25;5.53;;;10.10;92.30;;;;;;5054357;28;20103;-81
2022/01/11 05:54:29;;;;;;;6.70;4.90;;;10.10;92.50;;;;;;5053058;28;20036;-81
2022/01/11 05:56:54;;;;;;;8.88;5.15;;;10.10;92.40;;;;;;5052109;28;20505;-80
2022/01/11 05:59:20;;;;;;;10.75;6.07;;;10.10;92.30;;;;;;5051231;28;20046;-81
2022/01/11 06:01:46;;;;;;;10.45;6.75;;;10.10;92.30;;;;;;5052890;28;20060;-81
2022/01/11 06:04:11;;;;;;;12.00;5.95;;;10.00;92.30;;;;;;5051302;28;20178;-81
2022/01/11 06:06:37;;;;;;;8.43;5.47;;;10.00;92.40;;;;;;5052940;28;20021;-81
2022/01/11 06:09:03;;;;;;;7.68;5.22;;;10.00;92.50;;;;;;5053316;28;20489;-81
2022/01/11 06:11:29;;;;;;;9.43;5.40;;;10.00;92.50;;;;;;5052902;28;20486;-81
2022/01/11 06:13:55;;;;;;;7.13;4.97;;;10.00;92.60;;;;;;5052947;28;20513;-81
2022/01/11 06:16:21;;;;;;;11.07;5.57;;;10.00;92.70;;;;;;5052718;28;20025;-81
2022/01/11 06:18:48;;;;;;;8.57;5.47;;;10.00;92.50;;;;;;5052670;28;20105;-81
2022/01/11 06:21:14;;;;;;;8.35;4.88;;;10.00;92.70;;;;;;5053058;28;20025;-81
2022/01/11 06:23:39;;;;;;;8.82;5.22;;;9.90;92.60;;;;;;5052310;28;20044;-81
2022/01/11 06:26:05;;;;;;;11.13;5.32;;;9.90;92.60;;;;;;5052503;28;20060;-81
2022/01/11 06:28:31;;;;;;;10.73;5.28;;;9.80;92.70;;;;;;5051475;28;20495;-81
2022/01/11 06:30:56;;;;;;;9.52;5.22;;;9.80;93.00;;;;;;5052495;28;20040;-81
2022/01/11 06:33:23;;;;;;;8.82;4.93;;;9.80;93.10;;;;;;5052764;28;20035;-81
2022/01/11 06:35:49;;;;;;;10.32;5.55;;;9.80;93.10;;;;;;5052874;28;20025;-81
2022/01/11 06:38:14;;;;;;;9.50;5.50;;;9.80;93.50;;;;;;5052020;28;20100;-81
2022/01/11 06:40:41;;;;;;;10.00;5.18;;;9.80;93.10;;;;;;5052885;28;20107;-82
2022/01/11 06:43:07;;;;;;;7.57;5.50;;;9.80;93.00;;;;;;5052624;28;20025;-82
2022/01/11 06:45:33;;;;;;;9.27;4.97;;;9.70;93.00;;;;;;5050951;28;20036;-81
2022/01/11 06:48:00;;;;;;;8.15;5.07;;;9.80;93.20;;;;;;5036859;28;20486;-82
2022/01/11 06:50:26;;;;;;;11.38;5.50;;;9.80;93.30;;;;;;5051623;28;20376;-81
2022/01/11 06:52:52;;;;;;;7.50;5.30;;;9.80;93.20;;;;;;5052443;28;20095;-81
2022/01/11 06:55:19;;;;;;;9.82;5.32;;;9.80;93.10;;;;;;5052217;28;20510;-81
2022/01/11 06:57:48;;;;;;;10.93;5.57;;;9.80;93.10;;;;;;5052512;28;20393;-81
2022/01/11 07:00:14;;;;;;;10.10;5.50;;;9.80;93.20;;;;;;5050976;28;20414;-81
2022/01/11 07:02:40;;;;;;;8.18;5.47;;;9.70;93.10;;;;;;5051691;28;20090;-81
2022/01/11 07:05:06;;;;;;;8.18;5.57;;;9.80;93.40;;;;;;5052464;28;20518;-81
2022/01/11 07:07:32;;;;;;;12.00;5.88;;;9.80;93.30;;;;;;5051373;28;20449;-81
2022/01/11 07:09:58;;;;;;;10.10;5.32;;;9.80;93.30;;;;;;5045442;28;20490;-81
2022/01/11 07:12:23;;;;;;;10.30;5.45;;;9.80;93.30;;;;;;5052600;28;20056;-80
2022/01/11 07:14:49;;;;;;;7.65;5.38;;;9.80;93.30;;;;;;5051333;28;20033;-82
2022/01/11 07:17:15;;;;;;;9.35;5.68;;;9.80;93.20;;;;;;5052188;28;20025;-89
2022/01/11 07:19:42;;;;;;;9.40;5.75;;;9.90;93.60;;;;;;5053290;28;20033;-89
2022/01/11 07:22:08;;;;;;;11.05;6.57;;;9.90;93.10;;;;;;5052798;28;20036;-84
2022/01/11 07:24:34;;;;;;;9.85;6.32;;;9.90;93.20;;;;;;5052399;28;20040;-78
2022/01/11 07:26:59;;;;;;;12.93;5.80;;;9.80;93.00;;;;;;5052430;28;20021;-77
2022/01/11 07:29:25;;;;;;;11.98;6.88;;;9.90;93.20;;;;;;5049718;28;20029;-74
2022/01/11 07:31:51;;;;;;;9.40;6.60;;;9.80;92.80;;;;;;5051973;28;20125;-74
2022/01/11 07:34:17;;;;;;;17.67;6.95;;;9.70;93.00;;;;;;5050875;28;20017;-74
2022/01/11 07:36:43;;;;;;;14.68;7.28;;;9.70;93.00;;;;;;5052003;28;20617;-75
2022/01/11 07:39:10;;;;;;;13.75;7.28;;;9.70;93.10;;;;;;5055238;28;20076;-75
2022/01/11 07:41:36;;;;;;;12.05;6.93;;;9.70;93.20;;;;;;5055063;28;20021;-75
2022/01/11 07:44:02;;;;;;;13.63;6.85;;;9.70;93.40;;;;;;5055489;28;20025;-78
2022/01/11 07:46:27;;;;;;;14.70;7.13;;;9.70;93.00;;;;;;5054949;28;20033;-78
2022/01/11 07:48:53;;;;;;;13.77;7.40;;;9.60;93.10;;;;;;5048866;28;20439;-78
2022/01/11 07:51:19;;;;;;;10.85;6.43;;;9.60;93.00;;;;;;5048078;28;20568;-78
2022/01/11 07:53:45;;;;;;;12.95;6.63;;;9.70;93.40;;;;;;5054322;28;20029;-78
2022/01/11 07:56:10;;;;;;;14.57;7.47;;;9.70;93.40;;;;;;5047545;28;20510;-78
2022/01/11 07:58:37;;;;;;;11.35;6.72;;;9.60;93.10;;;;;;5051518;28;20451;-78
2022/01/11 08:01:03;;;;;;;14.18;7.18;;;9.70;93.30;;;;;;5052305;28;20032;-79
2022/01/11 08:03:29;;;;;;;14.48;6.80;;;9.70;93.10;;;;;;5055445;28;20036;-79
2022/01/11 08:05:54;;;;;;;13.73;6.82;;;9.70;93.20;;;;;;5048718;28;20070;-79
2022/01/11 08:08:20;;;;;;;9.95;5.70;;;9.70;93.30;;;;;;5049349;28;20087;-78
2022/01/11 08:10:45;;;;;;;10.60;6.15;;;9.70;93.30;;;;;;5040575;28;20041;-79
2022/01/11 08:13:11;;;;;;;11.30;6.13;;;9.80;93.10;;;;;;5047676;28;20033;-78
2022/01/11 08:15:38;;;;;;;8.77;5.97;;;9.80;93.20;;;;;;5044027;28;20112;-76
2022/01/11 08:18:05;;;;;;;11.05;6.10;;;9.80;93.10;;;;;;5046436;28;20028;-78
2022/01/11 08:20:31;;;;;;;12.95;6.40;;;9.80;93.10;;;;;;5046754;28;20025;-80
2022/01/11 08:22:57;;;;;;;12.68;5.82;;;9.80;92.80;;;;;;5047194;28;20040;-79
2022/01/11 08:25:24;;;;;;;10.27;6.30;;;9.70;92.80;;;;;;5047332;28;20040;-78
2022/01/11 08:27:50;;;;;;;10.68;6.60;;;9.80;92.90;;;;;;5047158;28;20029;-79
2022/01/11 08:30:16;;;;;;;11.05;6.50;;;9.70;92.80;;;;;;5038948;28;20700;-78
2022/01/11 08:32:41;;;;;;;11.43;7.10;;;9.70;92.90;;;;;;5044659;28;20110;-78
2022/01/11 08:35:07;;;;;;;9.98;6.38;;;9.70;93.00;;;;;;5010064;28;20064;-78
2022/01/11 08:37:33;;;;;;;12.07;6.45;;;9.70;92.80;;;;;;5050743;28;20025;-77
2022/01/11 08:39:59;;;;;;;9.63;6.90;;;9.70;92.70;;;;;;5051890;28;20552;-77
2022/01/11 08:42:27;;;;;;;11.80;6.47;;;9.60;92.60;;;;;;5043292;28;20017;-76
2022/01/11 08:44:53;;;;;;;9.70;6.25;;;9.70;92.80;;;;;;5051237;28;20082;-77
2022/01/11 08:47:20;;;;;;;9.50;7.13;;;9.60;92.70;;;;;;5056126;28;20025;-77
2022/01/11 08:49:46;;;;;;;8.65;6.22;;;9.60;92.70;;;;;;5052517;28;20033;-75
2022/01/11 08:52:13;;;;;;;9.90;6.68;;;9.60;93.00;;;;;;5041401;28;20025;-76
2022/01/11 08:54:39;;;;;;;10.27;6.53;;;9.60;92.60;;;;;;5049869;28;20171;-76
2022/01/11 08:57:05;;;;;;;11.80;6.95;;;9.70;92.90;;;;;;5060758;28;20029;-76
2022/01/11 08:59:31;;;;;;;10.38;6.45;;;9.70;92.60;;;;;;5055175;28;20146;-76
2022/01/11 09:01:59;;;;;;;10.75;6.72;;;9.60;92.60;;;;;;5053803;28;20522;-75
2022/01/11 09:04:26;;;;;;;10.38;6.32;;;9.70;93.00;;;;;;5040760;28;20483;-75
2022/01/11 09:06:57;;;;;;;12.00;7.28;;;9.80;92.60;;;;;;5053569;28;20028;-77
2022/01/11 09:09:25;;;;;;;11.45;6.80;;;9.70;92.60;;;;;;5062786;28;20021;-77
2022/01/11 09:11:51;;;;;;;9.93;6.38;;;9.70;92.60;;;;;;5050452;28;20410;-76
2022/01/11 09:14:18;;;;;;;12.27;7.30;;;9.70;92.70;;;;;;5057120;28;20024;-77
2022/01/11 09:16:44;;;;;;;10.15;6.55;;;9.70;92.60;;;;;;5054009;28;20033;-76
2022/01/11 09:19:13;;;;;;;9.95;6.75;;;9.70;92.60;;;;;;5054780;28;20024;-76
2022/01/11 09:21:38;;;;;;;12.77;6.68;;;9.70;92.70;;;;;;5058356;28;20503;-76
2022/01/11 09:24:05;;;;;;;11.32;6.68;;;9.80;92.70;;;;;;5049160;28;20021;-76
2022/01/11 09:26:31;;;;;;;10.70;6.05;;;9.80;92.50;;;;;;5064311;28;20033;-76
2022/01/11 09:28:57;;;;;;;9.88;6.35;;;9.80;92.80;;;;;;5050886;28;20032;-76
2022/01/11 09:31:23;;;;;;;9.27;6.45;;;9.80;92.70;;;;;;5057476;28;20059;-76
2022/01/11 09:33:50;;;;;;;10.68;6.65;;;9.80;92.50;;;;;;5061472;28;20426;-76
2022/01/11 09:36:16;;;;;;;9.73;6.35;;;9.80;92.40;;;;;;5049253;28;20034;-77
2022/01/11 09:38:42;;;;;;;7.70;5.65;;;9.80;92.50;;;;;;5056300;28;20037;-77
2022/01/11 09:41:08;;;;;;;9.68;6.00;;;9.80;92.40;;;;;;5052742;28;20480;-76
2022/01/11 09:43:34;;;;;;;9.50;6.22;;;9.90;92.30;;;;;;5058222;28;20043;-77
2022/01/11 09:46:00;;;;;;;8.38;5.70;;;9.80;92.20;;;;;;5058506;28;20530;-76
2022/01/11 09:48:29;;;;;;;10.43;5.70;;;9.80;92.40;;;;;;5049729;28;20043;-77
2022/01/11 09:50:56;;;;;;;10.82;5.32;;;9.80;92.20;;;;;;5062288;28;20064;-77
2022/01/11 09:53:22;;;;;;;9.20;5.95;;;9.80;92.30;;;;;;5055277;28;20017;-77
2022/01/11 09:55:48;;;;;;;8.20;5.75;;;9.80;92.30;;;;;;5060496;28;20059;-77
2022/01/11 09:58:15;;;;;;;11.13;5.72;;;9.80;92.10;;;;;;5055640;28;20017;-77
2022/01/11 10:00:41;;;;;;;10.52;6.47;;;9.80;92.20;;;;;;5049048;28;20044;-77
2022/01/11 10:03:07;;;;;;;12.23;5.80;;;9.80;92.20;;;;;;5052316;28;20029;-77
2022/01/11 10:05:35;;;;;;;11.65;5.90;;;9.80;92.30;;;;;;5055049;28;20036;-77
2022/01/11 10:08:18;;;;;;;9.70;5.85;;;9.80;92.30;;;;;;5061020;28;20588;-78
2022/01/11 10:10:45;;;;;;;8.98;5.45;;;9.80;92.40;;;;;;5050377;28;20029;-77
2022/01/11 10:13:28;;;;;;;11.25;6.03;;;9.80;92.30;;;;;;5055602;28;20053;-77
2022/01/11 10:15:54;;;;;;;11.32;5.43;;;9.70;92.40;;;;;;5058570;28;20067;-78
2022/01/11 10:18:35;;;;;;;9.45;5.75;;;9.80;92.70;;;;;;5047679;28;20057;-77
2022/01/11 10:21:01;;;;;;;10.13;5.85;;;9.80;92.50;;;;;;5033169;28;20562;-76
2022/01/11 10:23:34;;;;;;;9.57;5.90;;;9.80;92.30;;;;;;5045901;28;20104;-76
2022/01/11 10:26:00;;;;;;;7.32;5.20;;;9.80;92.60;;;;;;5042308;28;20032;-76
2022/01/11 10:28:34;;;;;;;8.70;5.68;;;9.80;92.30;;;;;;5046116;28;20395;-76
2022/01/11 10:31:00;;;;;;;10.10;6.20;;;9.80;92.50;;;;;;5045021;28;20068;-69
2022/01/11 10:33:26;;;;;;;11.98;6.65;;;9.90;92.40;;;;;;5054360;28;20059;-70
2022/01/11 10:35:52;;;;;;;9.10;5.68;;;9.80;92.40;;;;;;5054426;28;20407;-69
2022/01/11 10:38:26;;;;;;;11.35;6.22;;;9.90;92.40;;;;;;5064842;28;20028;-69
2022/01/11 10:40:52;;;;;;;7.65;5.57;;;9.80;92.40;;;;;;5050550;28;20029;-70
2022/01/11 10:43:21;;;;;;;9.48;5.32;;;9.90;92.70;;;;;;5055417;28;20113;-71
2022/01/11 10:45:49;;;;;;;8.77;5.60;;;9.90;92.50;;;;;;5060884;28;20039;-70
2022/01/11 10:48:18;;;;;;;9.60;5.78;;;9.90;92.40;;;;;;5047480;28;20029;-70
2022/01/11 10:50:47;;;;;;;9.10;5.65;;;9.90;92.40;;;;;;5065769;28;20070;-72
2022/01/11 10:53:18;;;;;;;9.55;5.93;;;9.80;92.50;;;;;;5051643;28;20025;-70
2022/01/11 10:55:50;;;;;;;11.02;6.03;;;9.90;92.70;;;;;;5051225;28;20110;-70
2022/01/11 10:58:17;;;;;;;9.43;6.03;;;9.90;92.60;;;;;;5052598;28;20021;-70
2022/01/11 11:00:45;;;;;;;8.18;6.07;;;9.90;92.40;;;;;;5050158;28;20032;-71
2022/01/11 11:03:14;;;;;;;11.23;7.10;;;10.00;92.50;;;;;;5049687;28;20021;-74
2022/01/11 11:05:48;;;;;;;8.23;5.63;;;9.90;92.30;;;;;;5052200;28;20028;-75
2022/01/11 11:08:25;;;;;;;10.40;6.63;;;9.90;92.60;;;;;;5052329;28;20027;-74
2022/01/11 11:10:56;;;;;;;11.10;5.82;;;10.00;92.60;;;;;;5051354;28;20045;-74
2022/01/11 11:13:34;;;;;;;9.43;5.75;;;10.00;92.30;;;;;;5053433;28;20036;-74
2022/01/11 11:16:11;;;;;;;7.68;5.93;;;9.90;92.10;;;;;;5055369;28;20048;-75
2022/01/11 11:18:47;;;;;;;10.40;5.70;;;9.90;92.30;;;;;;5053128;28;20021;-75
2022/01/11 11:21:26;;;;;;;9.68;6.00;;;9.90;92.40;;;;;;5051833;28;20029;-78
2022/01/11 11:24:07;;;;;;;9.25;5.72;;;10.00;93.00;;;;;;5053705;28;21191;-75
2022/01/11 11:26:37;;;;;;;8.13;5.05;;;10.00;92.40;;;;;;5043696;28;20029;-74
2022/01/11 11:29:05;;;;;;;9.60;5.93;;;10.00;92.40;;;;;;5054019;28;20025;-74
2022/01/11 11:31:34;;;;;;;9.75;5.40;;;10.00;92.30;;;;;;5063499;28;20036;-75
2022/01/11 11:34:00;;;;;;;9.27;5.18;;;10.00;92.50;;;;;;5063405;28;20029;-78
2022/01/11 11:36:27;;;;;;;9.63;6.18;;;10.00;92.40;;;;;;5052206;28;20024;-74
2022/01/11 11:39:11;;;;;;;8.63;5.80;;;10.00;92.80;;;;;;5052359;28;20087;-76
2022/01/11 11:41:45;;;;;;;9.60;5.38;;;10.00;92.40;;;;;;5066725;28;20036;-76
2022/01/11 11:44:16;;;;;;;7.00;4.57;;;10.00;92.80;;;;;;5058447;28;20029;-76
2022/01/11 11:46:54;;;;;;;10.40;5.25;;;10.10;92.60;;;;;;5055742;28;20039;-76
2022/01/11 11:49:44;;;;;;;8.43;5.40;;;10.10;92.50;;;;;;5048818;28;20557;-76
2022/01/11 11:52:31;;;;;;;9.82;5.82;;;10.00;92.50;;;;;;5050649;28;20028;-77
2022/01/11 11:54:58;;;;;;;7.50;5.18;;;10.10;92.70;;;;;;5055057;28;20082;-76
2022/01/11 11:57:28;;;;;;;8.23;5.18;;;10.10;92.70;;;;;;5053420;28;20036;-76
2022/01/11 11:59:59;;;;;;;9.43;5.72;;;10.20;92.60;;;;;;5053916;28;20071;-80
2022/01/11 12:02:34;;;;;;;9.80;5.75;;;10.20;92.50;;;;;;5035713;28;20542;-79
2022/01/11 12:05:00;;;;;;;10.80;6.10;;;10.20;92.50;;;;;;5037073;28;20037;-78
2022/01/11 12:07:28;;;;;;;8.98;5.53;;;10.20;92.40;;;;;;5052288;28;20398;-80
2022/01/11 12:09:54;;;;;;;10.25;5.90;;;10.10;92.60;;;;;;5057263;28;20112;-79
2022/01/11 12:12:40;;;;;;;8.77;5.55;;;10.20;92.60;;;;;;5066755;28;20112;-80
2022/01/11 12:15:21;;;;;;;9.65;5.72;;;10.20;92.50;;;;;;5039333;28;20215;-78
2022/01/11 12:17:59;;;;;;;9.82;5.40;;;10.20;92.30;;;;;;5042561;28;20511;-82
2022/01/11 12:20:51;;;;;;;8.73;5.00;;;10.20;92.50;;;;;;5057216;28;20032;-82
2022/01/11 12:23:39;;;;;;;7.80;4.72;;;10.30;92.60;;;;;;5070959;28;20033;-82
2022/01/11 12:26:22;;;;;;;11.93;5.28;;;10.40;92.70;;;;;;5062321;28;20047;-71
2022/01/11 12:29:10;;;;;;;9.15;4.50;;;10.50;92.60;;;;;;5056378;28;20025;-70
2022/01/11 12:31:49;;;;;;;7.15;4.70;;;10.60;92.10;;;;;;5055567;28;20490;-70
2022/01/11 12:34:15;;;;;;;8.07;4.07;;;10.60;92.10;;;;;;5051024;28;20013;-70
2022/01/11 12:37:00;;;;;;;6.63;4.10;;;10.60;92.10;;;;;;5054382;28;20098;-70
2022/01/11 12:39:29;;;;;;;7.18;4.97;;;10.80;92.60;;;;;;5049427;28;20029;-72
2022/01/11 12:41:56;;;;;;;6.45;4.15;;;10.70;91.60;;;;;;5052368;28;20026;-70
2022/01/11 12:44:34;;;;;;;8.07;4.38;;;10.70;91.60;;;;;;5045410;28;20067;-70
2022/01/11 12:47:03;;;;;;;7.45;4.13;;;10.70;91.90;;;;;;5047967;28;20091;-71
2022/01/11 12:49:30;;;;;;;6.05;3.70;;;10.70;91.70;;;;;;5041047;28;20025;-73
2022/01/11 12:52:08;;;;;;;6.57;3.75;;;10.80;92.10;;;;;;5046358;28;20037;-73